sensor_id;sensor_type;location;lat;lon;timestamp;P1;P2;P0
73565;PMS5003;61846;52.970;-3.168;2022-09-02T00:00:17;4;4;
73565;PMS5003;61846;52.970;-3.168;2022-09-02T00:02:43;3;3;
73565;PMS5003;61846;52.970;-3.168;2022-09-02T00:05:08;2;1;
73565;PMS5003;61846;52.970;-3.168;2022-09-02T00:07:33;5;4;
73565;PMS5003;61846;52.970;-3.168;2022-09-02T00:09:59;6;4;
73565;PMS5003;61846;52.970;-3.168;2022-09-02T00:12:24;3;3;
73565;PMS5003;61846;52.970;-3.168;2022-09-02T00:14:50;5;4;
73565;PMS5003;61846;52.970;-3.168;2022-09-02T00:17:15;7;5;
73565;PMS5003;61846;52.970;-3.168;2022-09-02T00:19:41;2;2;
73565;PMS5003;61846;52.970;-3.168;2022-09-02T00:22:06;7;5;
73565;PMS5003;61846;52.970;-3.168;2022-09-02T00:24:31;4;4;
73565;PMS5003;61846;52.970;-3.168;2022-09-02T00:26:57;4;4;
73565;PMS5003;61846;52.970;-3.168;2022-09-02T00:29:22;7;5;
73565;PMS5003;61846;52.970;-3.168;2022-09-02T00:31:48;5;2;
73565;PMS5003;61846;52.970;-3.168;2022-09-02T00:34:13;2;2;
73565;PMS5003;61846;52.970;-3.168;2022-09-02T00:36:39;3;3;
73565;PMS5003;61846;52.970;-3.168;2022-09-02T00:39:04;3;3;
73565;PMS5003;61846;52.970;-3.168;2022-09-02T00:41:29;4;3;
73565;PMS5003;61846;52.970;-3.168;2022-09-02T00:43:55;3;3;
73565;PMS5003;61846;52.970;-3.168;2022-09-02T00:46:22;2;2;
73565;PMS5003;61846;52.970;-3.168;2022-09-02T00:48:47;2;2;
73565;PMS5003;61846;52.970;-3.168;2022-09-02T00:51:11;1;1;
73565;PMS5003;61846;52.970;-3.168;2022-09-02T00:53:36;3;3;
73565;PMS5003;61846;52.970;-3.168;2022-09-02T00:56:02;2;2;
73565;PMS5003;61846;52.970;-3.168;2022-09-02T00:58:29;3;2;
73565;PMS5003;61846;52.970;-3.168;2022-09-02T01:00:53;4;3;
73565;PMS5003;61846;52.970;-3.168;2022-09-02T01:03:19;4;4;
73565;PMS5003;61846;52.970;-3.168;2022-09-02T01:05:44;5;5;
73565;PMS5003;61846;52.970;-3.168;2022-09-02T01:08:09;3;3;
73565;PMS5003;61846;52.970;-3.168;2022-09-02T01:10:35;4;4;
73565;PMS5003;61846;52.970;-3.168;2022-09-02T01:13:01;3;3;
73565;PMS5003;61846;52.970;-3.168;2022-09-02T01:15:25;4;4;
73565;PMS5003;61846;52.970;-3.168;2022-09-02T01:17:51;3;3;
73565;PMS5003;61846;52.970;-3.168;2022-09-02T01:20:18;4;4;
73565;PMS5003;61846;52.970;-3.168;2022-09-02T01:22:42;4;3;
73565;PMS5003;61846;52.970;-3.168;2022-09-02T01:25:08;4;4;
73565;PMS5003;61846;52.970;-3.168;2022-09-02T01:27:32;2;2;
73565;PMS5003;61846;52.970;-3.168;2022-09-02T01:29:58;4;4;
73565;PMS5003;61846;52.970;-3.168;2022-09-02T01:32:23;5;4;
73565;PMS5003;61846;52.970;-3.168;2022-09-02T01:34:49;5;5;
73565;PMS5003;61846;52.970;-3.168;2022-09-02T01:37:14;6;4;
73565;PMS5003;61846;52.970;-3.168;2022-09-02T01:39:40;7;4;
73565;PMS5003;61846;52.970;-3.168;2022-09-02T01:42:05;6;3;
73565;PMS5003;61846;52.970;-3.168;2022-09-02T01:44:31;5;5;
73565;PMS5003;61846;52.970;-3.168;2022-09-02T01:46:56;6;4;
73565;PMS5003;61846;52.970;-3.168;2022-09-02T01:49:21;8;6;
73565;PMS5003;61846;52.970;-3.168;2022-09-02T01:51:47;7;5;
73565;PMS5003;61846;52.970;-3.168;2022-09-02T01:54:12;7;5;
73565;PMS5003;61846;52.970;-3.168;2022-09-02T01:56:38;4;4;
73565;PMS5003;61846;52.970;-3.168;2022-09-02T01:59:03;3;3;
73565;PMS5003;61846;52.970;-3.168;2022-09-02T02:01:29;4;4;
73565;PMS5003;61846;52.970;-3.168;2022-09-02T02:03:54;5;5;
73565;PMS5003;61846;52.970;-3.168;2022-09-02T02:06:20;6;6;
73565;PMS5003;61846;52.970;-3.168;2022-09-02T02:08:45;5;5;
73565;PMS5003;61846;52.970;-3.168;2022-09-02T02:11:10;10;6;
73565;PMS5003;61846;52.970;-3.168;2022-09-02T02:13:36;6;5;
73565;PMS5003;61846;52.970;-3.168;2022-09-02T02:16:01;3;3;
73565;PMS5003;61846;52.970;-3.168;2022-09-02T02:18:26;5;5;
73565;PMS5003;61846;52.970;-3.168;2022-09-02T02:20:52;4;4;
73565;PMS5003;61846;52.970;-3.168;2022-09-02T02:23:17;5;5;
73565;PMS5003;61846;52.970;-3.168;2022-09-02T02:25:42;5;4;
73565;PMS5003;61846;52.970;-3.168;2022-09-02T02:28:07;5;5;
73565;PMS5003;61846;52.970;-3.168;2022-09-02T02:30:33;5;4;
73565;PMS5003;61846;52.970;-3.168;2022-09-02T02:32:58;4;4;
73565;PMS5003;61846;52.970;-3.168;2022-09-02T02:35:23;5;5;
73565;PMS5003;61846;52.970;-3.168;2022-09-02T02:37:49;4;4;
73565;PMS5003;61846;52.970;-3.168;2022-09-02T02:40:14;4;4;
73565;PMS5003;61846;52.970;-3.168;2022-09-02T02:42:39;4;4;
73565;PMS5003;61846;52.970;-3.168;2022-09-02T02:45:05;5;5;
73565;PMS5003;61846;52.970;-3.168;2022-09-02T02:47:30;3;3;
73565;PMS5003;61846;52.970;-3.168;2022-09-02T02:49:55;5;4;
73565;PMS5003;61846;52.970;-3.168;2022-09-02T02:52:21;4;4;
73565;PMS5003;61846;52.970;-3.168;2022-09-02T02:54:46;3;3;
73565;PMS5003;61846;52.970;-3.168;2022-09-02T02:57:12;4;2;
73565;PMS5003;61846;52.970;-3.168;2022-09-02T02:59:37;4;4;
73565;PMS5003;61846;52.970;-3.168;2022-09-02T03:02:03;3;3;
73565;PMS5003;61846;52.970;-3.168;2022-09-02T03:04:28;3;2;
73565;PMS5003;61846;52.970;-3.168;2022-09-02T03:06:53;4;3;
73565;PMS5003;61846;52.970;-3.168;2022-09-02T03:09:19;5;5;
73565;PMS5003;61846;52.970;-3.168;2022-09-02T03:11:44;4;4;
73565;PMS5003;61846;52.970;-3.168;2022-09-02T03:14:10;6;6;
73565;PMS5003;61846;52.970;-3.168;2022-09-02T03:16:35;3;3;
73565;PMS5003;61846;52.970;-3.168;2022-09-02T03:19:00;1;1;
73565;PMS5003;61846;52.970;-3.168;2022-09-02T03:21:26;4;4;
73565;PMS5003;61846;52.970;-3.168;2022-09-02T03:23:51;5;5;
73565;PMS5003;61846;52.970;-3.168;2022-09-02T03:26:17;5;4;
73565;PMS5003;61846;52.970;-3.168;2022-09-02T03:28:42;4;4;
73565;PMS5003;61846;52.970;-3.168;2022-09-02T03:31:11;4;4;
73565;PMS5003;61846;52.970;-3.168;2022-09-02T03:33:33;4;4;
73565;PMS5003;61846;52.970;-3.168;2022-09-02T03:35:58;6;4;
73565;PMS5003;61846;52.970;-3.168;2022-09-02T03:38:24;4;4;
73565;PMS5003;61846;52.970;-3.168;2022-09-02T03:40:49;5;4;
73565;PMS5003;61846;52.970;-3.168;2022-09-02T03:43:14;5;5;
73565;PMS5003;61846;52.970;-3.168;2022-09-02T03:45:40;3;3;
73565;PMS5003;61846;52.970;-3.168;2022-09-02T03:48:05;2;2;
73565;PMS5003;61846;52.970;-3.168;2022-09-02T03:50:32;4;4;
73565;PMS5003;61846;52.970;-3.168;2022-09-02T03:52:57;7;6;
73565;PMS5003;61846;52.970;-3.168;2022-09-02T03:55:22;5;4;
73565;PMS5003;61846;52.970;-3.168;2022-09-02T03:57:47;4;4;
73565;PMS5003;61846;52.970;-3.168;2022-09-02T04:00:13;5;4;
73565;PMS5003;61846;52.970;-3.168;2022-09-02T04:02:38;4;3;
73565;PMS5003;61846;52.970;-3.168;2022-09-02T04:05:03;6;4;
73565;PMS5003;61846;52.970;-3.168;2022-09-02T04:07:28;4;4;
73565;PMS5003;61846;52.970;-3.168;2022-09-02T04:09:53;7;5;
73565;PMS5003;61846;52.970;-3.168;2022-09-02T04:12:19;4;4;
73565;PMS5003;61846;52.970;-3.168;2022-09-02T04:14:44;3;3;
73565;PMS5003;61846;52.970;-3.168;2022-09-02T04:17:10;5;5;
73565;PMS5003;61846;52.970;-3.168;2022-09-02T04:19:35;6;5;
73565;PMS5003;61846;52.970;-3.168;2022-09-02T04:22:00;9;7;
73565;PMS5003;61846;52.970;-3.168;2022-09-02T04:24:26;6;6;
73565;PMS5003;61846;52.970;-3.168;2022-09-02T04:26:51;5;4;
73565;PMS5003;61846;52.970;-3.168;2022-09-02T04:29:18;3;3;
73565;PMS5003;61846;52.970;-3.168;2022-09-02T04:31:42;5;5;
73565;PMS5003;61846;52.970;-3.168;2022-09-02T04:34:07;7;6;
73565;PMS5003;61846;52.970;-3.168;2022-09-02T04:36:33;4;4;
73565;PMS5003;61846;52.970;-3.168;2022-09-02T04:38:58;9;8;
73565;PMS5003;61846;52.970;-3.168;2022-09-02T04:41:24;7;6;
73565;PMS5003;61846;52.970;-3.168;2022-09-02T04:43:49;8;7;
73565;PMS5003;61846;52.970;-3.168;2022-09-02T04:46:15;6;4;
73565;PMS5003;61846;52.970;-3.168;2022-09-02T04:48:40;5;5;
73565;PMS5003;61846;52.970;-3.168;2022-09-02T04:51:06;4;3;
73565;PMS5003;61846;52.970;-3.168;2022-09-02T04:53:30;5;5;
73565;PMS5003;61846;52.970;-3.168;2022-09-02T04:55:56;5;5;
73565;PMS5003;61846;52.970;-3.168;2022-09-02T04:58:21;8;7;
73565;PMS5003;61846;52.970;-3.168;2022-09-02T05:00:47;11;6;
73565;PMS5003;61846;52.970;-3.168;2022-09-02T05:03:12;9;7;
73565;PMS5003;61846;52.970;-3.168;2022-09-02T05:05:38;6;5;
73565;PMS5003;61846;52.970;-3.168;2022-09-02T05:08:03;3;3;
73565;PMS5003;61846;52.970;-3.168;2022-09-02T05:10:29;7;5;
73565;PMS5003;61846;52.970;-3.168;2022-09-02T05:12:54;5;5;
73565;PMS5003;61846;52.970;-3.168;2022-09-02T05:15:20;5;5;
73565;PMS5003;61846;52.970;-3.168;2022-09-02T05:17:45;5;5;
73565;PMS5003;61846;52.970;-3.168;2022-09-02T05:20:10;7;5;
73565;PMS5003;61846;52.970;-3.168;2022-09-02T05:22:36;4;4;
73565;PMS5003;61846;52.970;-3.168;2022-09-02T05:25:01;9;6;
73565;PMS5003;61846;52.970;-3.168;2022-09-02T05:27:26;7;6;
73565;PMS5003;61846;52.970;-3.168;2022-09-02T05:29:53;7;6;
73565;PMS5003;61846;52.970;-3.168;2022-09-02T05:32:17;9;8;
73565;PMS5003;61846;52.970;-3.168;2022-09-02T05:34:43;8;7;
73565;PMS5003;61846;52.970;-3.168;2022-09-02T05:37:08;6;6;
73565;PMS5003;61846;52.970;-3.168;2022-09-02T05:39:33;9;9;
73565;PMS5003;61846;52.970;-3.168;2022-09-02T05:41:59;5;3;
73565;PMS5003;61846;52.970;-3.168;2022-09-02T05:44:24;6;6;
73565;PMS5003;61846;52.970;-3.168;2022-09-02T05:46:50;8;4;
73565;PMS5003;61846;52.970;-3.168;2022-09-02T05:49:15;11;10;
73565;PMS5003;61846;52.970;-3.168;2022-09-02T05:51:41;6;6;
73565;PMS5003;61846;52.970;-3.168;2022-09-02T05:54:06;6;6;
73565;PMS5003;61846;52.970;-3.168;2022-09-02T05:56:31;6;6;
73565;PMS5003;61846;52.970;-3.168;2022-09-02T05:58:56;6;6;
73565;PMS5003;61846;52.970;-3.168;2022-09-02T06:01:22;5;5;
73565;PMS5003;61846;52.970;-3.168;2022-09-02T06:03:47;8;8;
73565;PMS5003;61846;52.970;-3.168;2022-09-02T06:06:13;8;7;
73565;PMS5003;61846;52.970;-3.168;2022-09-02T06:08:38;9;9;
73565;PMS5003;61846;52.970;-3.168;2022-09-02T06:11:05;9;7;
73565;PMS5003;61846;52.970;-3.168;2022-09-02T06:13:29;7;7;
73565;PMS5003;61846;52.970;-3.168;2022-09-02T06:15:54;9;9;
73565;PMS5003;61846;52.970;-3.168;2022-09-02T06:18:20;6;6;
73565;PMS5003;61846;52.970;-3.168;2022-09-02T06:20:46;6;6;
73565;PMS5003;61846;52.970;-3.168;2022-09-02T06:23:10;9;7;
73565;PMS5003;61846;52.970;-3.168;2022-09-02T06:25:36;9;7;
73565;PMS5003;61846;52.970;-3.168;2022-09-02T06:28:01;5;5;
73565;PMS5003;61846;52.970;-3.168;2022-09-02T06:30:26;10;7;
73565;PMS5003;61846;52.970;-3.168;2022-09-02T06:32:52;16;11;
73565;PMS5003;61846;52.970;-3.168;2022-09-02T06:35:17;12;8;
73565;PMS5003;61846;52.970;-3.168;2022-09-02T06:37:42;9;7;
73565;PMS5003;61846;52.970;-3.168;2022-09-02T06:40:08;13;11;
73565;PMS5003;61846;52.970;-3.168;2022-09-02T06:42:33;8;7;
73565;PMS5003;61846;52.970;-3.168;2022-09-02T06:44:59;8;8;
73565;PMS5003;61846;52.970;-3.168;2022-09-02T06:47:24;8;8;
73565;PMS5003;61846;52.970;-3.168;2022-09-02T06:49:49;10;10;
73565;PMS5003;61846;52.970;-3.168;2022-09-02T06:52:14;7;7;
73565;PMS5003;61846;52.970;-3.168;2022-09-02T06:54:40;10;8;
73565;PMS5003;61846;52.970;-3.168;2022-09-02T06:57:05;7;7;
73565;PMS5003;61846;52.970;-3.168;2022-09-02T06:59:31;14;12;
73565;PMS5003;61846;52.970;-3.168;2022-09-02T07:01:56;12;8;
73565;PMS5003;61846;52.970;-3.168;2022-09-02T07:04:21;10;10;
73565;PMS5003;61846;52.970;-3.168;2022-09-02T07:06:48;11;11;
73565;PMS5003;61846;52.970;-3.168;2022-09-02T07:09:14;22;14;
73565;PMS5003;61846;52.970;-3.168;2022-09-02T07:11:38;8;8;
73565;PMS5003;61846;52.970;-3.168;2022-09-02T07:14:03;12;12;
73565;PMS5003;61846;52.970;-3.168;2022-09-02T07:16:29;9;7;
73565;PMS5003;61846;52.970;-3.168;2022-09-02T07:18:54;14;12;
73565;PMS5003;61846;52.970;-3.168;2022-09-02T07:21:19;10;8;
73565;PMS5003;61846;52.970;-3.168;2022-09-02T07:23:44;9;9;
73565;PMS5003;61846;52.970;-3.168;2022-09-02T07:26:10;7;7;
73565;PMS5003;61846;52.970;-3.168;2022-09-02T07:28:34;10;10;
73565;PMS5003;61846;52.970;-3.168;2022-09-02T07:31:00;9;8;
73565;PMS5003;61846;52.970;-3.168;2022-09-02T07:33:25;7;7;
73565;PMS5003;61846;52.970;-3.168;2022-09-02T07:35:50;16;10;
73565;PMS5003;61846;52.970;-3.168;2022-09-02T07:38:15;7;7;
73565;PMS5003;61846;52.970;-3.168;2022-09-02T07:40:41;9;9;
73565;PMS5003;61846;52.970;-3.168;2022-09-02T07:43:07;10;9;
73565;PMS5003;61846;52.970;-3.168;2022-09-02T07:45:32;11;9;
73565;PMS5003;61846;52.970;-3.168;2022-09-02T07:47:58;13;10;
73565;PMS5003;61846;52.970;-3.168;2022-09-02T07:50:23;9;7;
73565;PMS5003;61846;52.970;-3.168;2022-09-02T07:52:48;11;7;
73565;PMS5003;61846;52.970;-3.168;2022-09-02T07:55:13;10;8;
73565;PMS5003;61846;52.970;-3.168;2022-09-02T07:57:39;9;9;
73565;PMS5003;61846;52.970;-3.168;2022-09-02T08:00:04;14;12;
73565;PMS5003;61846;52.970;-3.168;2022-09-02T08:02:29;11;8;
73565;PMS5003;61846;52.970;-3.168;2022-09-02T08:04:54;9;9;
73565;PMS5003;61846;52.970;-3.168;2022-09-02T08:07:20;10;9;
73565;PMS5003;61846;52.970;-3.168;2022-09-02T08:09:45;15;11;
73565;PMS5003;61846;52.970;-3.168;2022-09-02T08:12:11;12;9;
73565;PMS5003;61846;52.970;-3.168;2022-09-02T08:14:36;9;9;
73565;PMS5003;61846;52.970;-3.168;2022-09-02T08:17:01;10;10;
73565;PMS5003;61846;52.970;-3.168;2022-09-02T08:19:27;13;11;
73565;PMS5003;61846;52.970;-3.168;2022-09-02T08:21:52;10;8;
73565;PMS5003;61846;52.970;-3.168;2022-09-02T08:24:17;7;7;
73565;PMS5003;61846;52.970;-3.168;2022-09-02T08:26:43;18;9;
73565;PMS5003;61846;52.970;-3.168;2022-09-02T08:29:08;8;6;
73565;PMS5003;61846;52.970;-3.168;2022-09-02T08:31:35;7;7;
73565;PMS5003;61846;52.970;-3.168;2022-09-02T08:33:59;8;7;
73565;PMS5003;61846;52.970;-3.168;2022-09-02T08:36:25;7;7;
73565;PMS5003;61846;52.970;-3.168;2022-09-02T08:38:50;14;11;
73565;PMS5003;61846;52.970;-3.168;2022-09-02T08:41:19;8;8;
73565;PMS5003;61846;52.970;-3.168;2022-09-02T08:43:41;12;11;
73565;PMS5003;61846;52.970;-3.168;2022-09-02T08:46:07;10;10;
73565;PMS5003;61846;52.970;-3.168;2022-09-02T08:48:33;7;7;
73565;PMS5003;61846;52.970;-3.168;2022-09-02T08:50:57;11;10;
73565;PMS5003;61846;52.970;-3.168;2022-09-02T08:53:24;13;6;
73565;PMS5003;61846;52.970;-3.168;2022-09-02T08:55:49;8;8;
73565;PMS5003;61846;52.970;-3.168;2022-09-02T08:58:14;10;9;
73565;PMS5003;61846;52.970;-3.168;2022-09-02T09:00:39;16;11;
73565;PMS5003;61846;52.970;-3.168;2022-09-02T09:03:07;9;9;
73565;PMS5003;61846;52.970;-3.168;2022-09-02T09:05:30;9;9;
73565;PMS5003;61846;52.970;-3.168;2022-09-02T09:07:57;11;9;
73565;PMS5003;61846;52.970;-3.168;2022-09-02T09:10:20;10;10;
73565;PMS5003;61846;52.970;-3.168;2022-09-02T09:12:51;15;13;
73565;PMS5003;61846;52.970;-3.168;2022-09-02T09:15:10;11;8;
73565;PMS5003;61846;52.970;-3.168;2022-09-02T09:17:37;10;9;
73565;PMS5003;61846;52.970;-3.168;2022-09-02T09:20:02;10;9;
73565;PMS5003;61846;52.970;-3.168;2022-09-02T09:22:28;11;9;
73565;PMS5003;61846;52.970;-3.168;2022-09-02T09:24:51;9;7;
73565;PMS5003;61846;52.970;-3.168;2022-09-02T09:27:17;11;10;
73565;PMS5003;61846;52.970;-3.168;2022-09-02T09:29:42;16;8;
73565;PMS5003;61846;52.970;-3.168;2022-09-02T09:32:10;8;8;
73565;PMS5003;61846;52.970;-3.168;2022-09-02T09:36:58;11;11;
73565;PMS5003;61846;52.970;-3.168;2022-09-02T09:39:25;12;12;
73565;PMS5003;61846;52.970;-3.168;2022-09-02T09:41:49;9;8;
73565;PMS5003;61846;52.970;-3.168;2022-09-02T09:46:40;10;7;
73565;PMS5003;61846;52.970;-3.168;2022-09-02T09:49:05;10;10;
73565;PMS5003;61846;52.970;-3.168;2022-09-02T09:51:30;13;13;
73565;PMS5003;61846;52.970;-3.168;2022-09-02T09:56:24;14;11;
73565;PMS5003;61846;52.970;-3.168;2022-09-02T09:58:47;11;9;
73565;PMS5003;61846;52.970;-3.168;2022-09-02T10:01:12;14;12;
73565;PMS5003;61846;52.970;-3.168;2022-09-02T10:03:39;13;12;
73565;PMS5003;61846;52.970;-3.168;2022-09-02T10:08:27;13;13;
73565;PMS5003;61846;52.970;-3.168;2022-09-02T10:10:54;14;12;
73565;PMS5003;61846;52.970;-3.168;2022-09-02T10:13:18;13;13;
73565;PMS5003;61846;52.970;-3.168;2022-09-02T10:15:43;9;9;
73565;PMS5003;61846;52.970;-3.168;2022-09-02T10:18:11;14;14;
73565;PMS5003;61846;52.970;-3.168;2022-09-02T10:20:37;13;11;
73565;PMS5003;61846;52.970;-3.168;2022-09-02T10:23:02;13;11;
73565;PMS5003;61846;52.970;-3.168;2022-09-02T10:25:25;11;10;
73565;PMS5003;61846;52.970;-3.168;2022-09-02T10:27:52;13;11;
73565;PMS5003;61846;52.970;-3.168;2022-09-02T10:30:15;14;11;
73565;PMS5003;61846;52.970;-3.168;2022-09-02T10:32:46;22;15;
73565;PMS5003;61846;52.970;-3.168;2022-09-02T10:35:08;14;14;
73565;PMS5003;61846;52.970;-3.168;2022-09-02T10:37:33;22;19;
73565;PMS5003;61846;52.970;-3.168;2022-09-02T10:40:01;12;10;
73565;PMS5003;61846;52.970;-3.168;2022-09-02T10:42:23;12;12;
73565;PMS5003;61846;52.970;-3.168;2022-09-02T10:44:49;26;20;
73565;PMS5003;61846;52.970;-3.168;2022-09-02T10:47:14;15;14;
73565;PMS5003;61846;52.970;-3.168;2022-09-02T10:49:43;19;15;
73565;PMS5003;61846;52.970;-3.168;2022-09-02T10:52:06;22;20;
73565;PMS5003;61846;52.970;-3.168;2022-09-02T10:54:34;24;22;
73565;PMS5003;61846;52.970;-3.168;2022-09-02T10:56:58;24;20;
73565;PMS5003;61846;52.970;-3.168;2022-09-02T10:59:22;14;14;
73565;PMS5003;61846;52.970;-3.168;2022-09-02T11:01:47;20;16;
73565;PMS5003;61846;52.970;-3.168;2022-09-02T11:04:12;15;15;
73565;PMS5003;61846;52.970;-3.168;2022-09-02T11:06:38;19;17;
73565;PMS5003;61846;52.970;-3.168;2022-09-02T11:09:05;13;13;
73565;PMS5003;61846;52.970;-3.168;2022-09-02T11:11:29;12;12;
73565;PMS5003;61846;52.970;-3.168;2022-09-02T11:13:56;13;11;
73565;PMS5003;61846;52.970;-3.168;2022-09-02T11:16:19;14;11;
73565;PMS5003;61846;52.970;-3.168;2022-09-02T11:18:46;16;13;
73565;PMS5003;61846;52.970;-3.168;2022-09-02T11:21:13;11;11;
73565;PMS5003;61846;52.970;-3.168;2022-09-02T11:23:37;16;14;
73565;PMS5003;61846;52.970;-3.168;2022-09-02T11:26:03;25;24;
73565;PMS5003;61846;52.970;-3.168;2022-09-02T11:28:29;11;11;
73565;PMS5003;61846;52.970;-3.168;2022-09-02T11:30:52;11;10;
73565;PMS5003;61846;52.970;-3.168;2022-09-02T11:33:18;10;10;
73565;PMS5003;61846;52.970;-3.168;2022-09-02T11:35:42;9;9;
73565;PMS5003;61846;52.970;-3.168;2022-09-02T11:38:09;8;8;
73565;PMS5003;61846;52.970;-3.168;2022-09-02T11:40:34;12;10;
73565;PMS5003;61846;52.970;-3.168;2022-09-02T11:43:02;9;9;
73565;PMS5003;61846;52.970;-3.168;2022-09-02T11:47:52;11;9;
73565;PMS5003;61846;52.970;-3.168;2022-09-02T11:50:18;9;7;
73565;PMS5003;61846;52.970;-3.168;2022-09-02T11:52:44;10;10;
73565;PMS5003;61846;52.970;-3.168;2022-09-02T11:55:07;8;7;
73565;PMS5003;61846;52.970;-3.168;2022-09-02T11:57:29;10;10;
73565;PMS5003;61846;52.970;-3.168;2022-09-02T12:00:01;8;6;
73565;PMS5003;61846;52.970;-3.168;2022-09-02T12:04:46;9;7;
73565;PMS5003;61846;52.970;-3.168;2022-09-02T12:09:42;11;9;
73565;PMS5003;61846;52.970;-3.168;2022-09-02T12:12:01;10;10;
73565;PMS5003;61846;52.970;-3.168;2022-09-02T12:16:58;11;11;
73565;PMS5003;61846;52.970;-3.168;2022-09-02T12:24:09;10;10;
73565;PMS5003;61846;52.970;-3.168;2022-09-02T12:33:50;10;10;
73565;PMS5003;61846;52.970;-3.168;2022-09-02T12:38:40;9;8;
73565;PMS5003;61846;52.970;-3.168;2022-09-02T12:41:08;12;11;
73565;PMS5003;61846;52.970;-3.168;2022-09-02T12:43:32;13;13;
73565;PMS5003;61846;52.970;-3.168;2022-09-02T12:45:59;12;10;
73565;PMS5003;61846;52.970;-3.168;2022-09-02T12:48:22;11;11;
73565;PMS5003;61846;52.970;-3.168;2022-09-02T12:50:52;10;10;
73565;PMS5003;61846;52.970;-3.168;2022-09-02T12:53:23;9;9;
73565;PMS5003;61846;52.970;-3.168;2022-09-02T12:55:38;12;10;
73565;PMS5003;61846;52.970;-3.168;2022-09-02T12:58:05;9;9;
73565;PMS5003;61846;52.970;-3.168;2022-09-02T13:00:30;8;7;
73565;PMS5003;61846;52.970;-3.168;2022-09-02T13:02:57;12;12;
73565;PMS5003;61846;52.970;-3.168;2022-09-02T13:05:20;10;7;
73565;PMS5003;61846;52.970;-3.168;2022-09-02T13:12:41;12;12;
73565;PMS5003;61846;52.970;-3.168;2022-09-02T13:15:04;13;13;
73565;PMS5003;61846;52.970;-3.168;2022-09-02T13:17:26;13;13;
73565;PMS5003;61846;52.970;-3.168;2022-09-02T13:19:58;12;12;
73565;PMS5003;61846;52.970;-3.168;2022-09-02T13:27:21;12;11;
73565;PMS5003;61846;52.970;-3.168;2022-09-02T13:31:58;15;14;
73565;PMS5003;61846;52.970;-3.168;2022-09-02T13:34:24;10;9;
73565;PMS5003;61846;52.970;-3.168;2022-09-02T13:36:50;11;10;
73565;PMS5003;61846;52.970;-3.168;2022-09-02T13:39:15;15;13;
73565;PMS5003;61846;52.970;-3.168;2022-09-02T13:41:40;13;11;
73565;PMS5003;61846;52.970;-3.168;2022-09-02T13:44:07;14;14;
73565;PMS5003;61846;52.970;-3.168;2022-09-02T13:46:31;12;12;
73565;PMS5003;61846;52.970;-3.168;2022-09-02T13:48:56;11;11;
73565;PMS5003;61846;52.970;-3.168;2022-09-02T13:51:21;13;11;
73565;PMS5003;61846;52.970;-3.168;2022-09-02T13:53:47;12;12;
73565;PMS5003;61846;52.970;-3.168;2022-09-02T13:56:12;13;11;
73565;PMS5003;61846;52.970;-3.168;2022-09-02T13:58:39;14;12;
73565;PMS5003;61846;52.970;-3.168;2022-09-02T14:03:27;12;12;
73565;PMS5003;61846;52.970;-3.168;2022-09-02T14:05:53;10;10;
73565;PMS5003;61846;52.970;-3.168;2022-09-02T14:08:19;5;5;
73565;PMS5003;61846;52.970;-3.168;2022-09-02T14:10:43;8;8;
73565;PMS5003;61846;52.970;-3.168;2022-09-02T14:13:09;7;7;
73565;PMS5003;61846;52.970;-3.168;2022-09-02T14:15:34;11;11;
73565;PMS5003;61846;52.970;-3.168;2022-09-02T14:18:06;12;10;
73565;PMS5003;61846;52.970;-3.168;2022-09-02T14:20:25;12;10;
73565;PMS5003;61846;52.970;-3.168;2022-09-02T14:22:51;16;11;
73565;PMS5003;61846;52.970;-3.168;2022-09-02T14:25:15;11;11;
73565;PMS5003;61846;52.970;-3.168;2022-09-02T14:30:06;11;11;
73565;PMS5003;61846;52.970;-3.168;2022-09-02T14:32:31;10;9;
73565;PMS5003;61846;52.970;-3.168;2022-09-02T14:37:23;13;12;
73565;PMS5003;61846;52.970;-3.168;2022-09-02T14:39:52;8;8;
73565;PMS5003;61846;52.970;-3.168;2022-09-02T14:42:12;10;10;
73565;PMS5003;61846;52.970;-3.168;2022-09-02T14:44:38;8;6;
73565;PMS5003;61846;52.970;-3.168;2022-09-02T14:47:04;12;11;
73565;PMS5003;61846;52.970;-3.168;2022-09-02T14:49:29;12;8;
73565;PMS5003;61846;52.970;-3.168;2022-09-02T14:51:54;9;9;
73565;PMS5003;61846;52.970;-3.168;2022-09-02T14:56:45;11;10;
73565;PMS5003;61846;52.970;-3.168;2022-09-02T14:59:10;12;10;
73565;PMS5003;61846;52.970;-3.168;2022-09-02T15:01:36;10;9;
73565;PMS5003;61846;52.970;-3.168;2022-09-02T15:04:01;17;14;
73565;PMS5003;61846;52.970;-3.168;2022-09-02T15:06:26;15;15;
73565;PMS5003;61846;52.970;-3.168;2022-09-02T15:08:51;14;14;
73565;PMS5003;61846;52.970;-3.168;2022-09-02T15:11:17;21;14;
73565;PMS5003;61846;52.970;-3.168;2022-09-02T15:13:42;12;12;
73565;PMS5003;61846;52.970;-3.168;2022-09-02T15:16:07;8;8;
73565;PMS5003;61846;52.970;-3.168;2022-09-02T15:18:32;12;10;
73565;PMS5003;61846;52.970;-3.168;2022-09-02T15:20:58;11;10;
73565;PMS5003;61846;52.970;-3.168;2022-09-02T15:23:23;13;10;
73565;PMS5003;61846;52.970;-3.168;2022-09-02T15:25:48;12;11;
73565;PMS5003;61846;52.970;-3.168;2022-09-02T15:28:13;11;8;
73565;PMS5003;61846;52.970;-3.168;2022-09-02T15:30:38;7;5;
73565;PMS5003;61846;52.970;-3.168;2022-09-02T15:33:03;10;10;
73565;PMS5003;61846;52.970;-3.168;2022-09-02T15:37:54;12;12;
73565;PMS5003;61846;52.970;-3.168;2022-09-02T15:40:19;12;11;
73565;PMS5003;61846;52.970;-3.168;2022-09-02T15:42:45;10;10;
73565;PMS5003;61846;52.970;-3.168;2022-09-02T15:45:10;10;9;
73565;PMS5003;61846;52.970;-3.168;2022-09-02T15:47:35;10;9;
73565;PMS5003;61846;52.970;-3.168;2022-09-02T15:50:00;8;7;
73565;PMS5003;61846;52.970;-3.168;2022-09-02T15:52:26;13;13;
73565;PMS5003;61846;52.970;-3.168;2022-09-02T15:54:52;8;8;
73565;PMS5003;61846;52.970;-3.168;2022-09-02T15:57:16;10;10;
73565;PMS5003;61846;52.970;-3.168;2022-09-02T15:59:42;9;9;
73565;PMS5003;61846;52.970;-3.168;2022-09-02T16:02:08;15;9;
73565;PMS5003;61846;52.970;-3.168;2022-09-02T16:04:33;10;10;
73565;PMS5003;61846;52.970;-3.168;2022-09-02T16:06:59;8;8;
73565;PMS5003;61846;52.970;-3.168;2022-09-02T16:09:24;9;9;
73565;PMS5003;61846;52.970;-3.168;2022-09-02T16:11:49;8;8;
73565;PMS5003;61846;52.970;-3.168;2022-09-02T16:14:15;9;9;
73565;PMS5003;61846;52.970;-3.168;2022-09-02T16:16:40;10;10;
73565;PMS5003;61846;52.970;-3.168;2022-09-02T16:19:05;11;11;
73565;PMS5003;61846;52.970;-3.168;2022-09-02T16:21:30;12;10;
73565;PMS5003;61846;52.970;-3.168;2022-09-02T16:23:55;8;8;
73565;PMS5003;61846;52.970;-3.168;2022-09-02T16:26:21;12;12;
73565;PMS5003;61846;52.970;-3.168;2022-09-02T16:28:46;10;10;
73565;PMS5003;61846;52.970;-3.168;2022-09-02T16:31:13;12;12;
73565;PMS5003;61846;52.970;-3.168;2022-09-02T16:33:37;14;10;
73565;PMS5003;61846;52.970;-3.168;2022-09-02T16:36:03;10;10;
73565;PMS5003;61846;52.970;-3.168;2022-09-02T16:38:28;12;11;
73565;PMS5003;61846;52.970;-3.168;2022-09-02T16:40:54;16;8;
73565;PMS5003;61846;52.970;-3.168;2022-09-02T16:43:18;10;10;
73565;PMS5003;61846;52.970;-3.168;2022-09-02T16:45:44;10;10;
73565;PMS5003;61846;52.970;-3.168;2022-09-02T16:48:09;10;10;
73565;PMS5003;61846;52.970;-3.168;2022-09-02T16:50:35;9;7;
73565;PMS5003;61846;52.970;-3.168;2022-09-02T16:52:59;6;6;
73565;PMS5003;61846;52.970;-3.168;2022-09-02T16:55:25;8;8;
73565;PMS5003;61846;52.970;-3.168;2022-09-02T16:57:50;12;10;
73565;PMS5003;61846;52.970;-3.168;2022-09-02T17:00:16;9;9;
73565;PMS5003;61846;52.970;-3.168;2022-09-02T17:02:42;9;9;
73565;PMS5003;61846;52.970;-3.168;2022-09-02T17:05:07;10;7;